Time;durP1;ratioP1;P1;durP2;ratioP2;P2;SDS_P1;SDS_P2;PMS_P1;PMS_P2;Temp;Humidity;BMP_temperature;BMP_pressure;BME280_temperature;BME280_humidity;BME280_pressure;Samples;Min_cycle;Max_cycle;Signal;HPM_P1;HPM_P2
2022/01/02 00:03:04;;;;;;;1.58;1.20;;;;;;;17.59;65.17;101282.00;21136311;28;20048;-77
2022/01/02 00:13:08;;;;;;;2.38;1.50;;;;;;;17.17;65.09;101186.63;21136315;28;20059;-76
2022/01/02 00:23:17;;;;;;;1.17;1.08;;;;;;;17.57;65.18;101233.69;21135518;28;20047;-76
2022/01/02 00:33:19;;;;;;;1.35;1.25;;;;;;;17.12;64.81;101150.34;21167947;28;20051;-77
2022/01/02 00:43:42;;;;;;;1.52;1.33;;;;;;;17.01;65.00;101114.38;21167475;28;20598;-76
2022/01/02 00:53:47;;;;;;;1.50;1.15;;;;;;;17.08;65.02;101125.53;21131706;28;20484;-76
2022/01/02 01:03:52;;;;;;;2.08;1.15;;;;;;;17.58;65.01;101192.31;21147345;28;20400;-76
2022/01/02 01:13:54;;;;;;;;;;;;;;;17.57;64.79;101200.50;21130813;28;20074;-76
2022/01/02 01:23:56;;;;;;;1.95;1.30;;;;;;;17.43;65.01;101202.50;21129246;28;19923;-76
2022/01/02 01:33:58;;;;;;;1.90;1.30;;;;;;;16.87;65.18;101085.06;21145381;28;20043;-76
2022/01/02 01:54:10;;;;;;;3.17;1.40;;;;;;;17.31;65.02;101120.09;21143555;28;20051;-76
2022/01/02 02:04:12;;;;;;;2.10;1.52;;;;;;;17.38;64.92;101148.19;21142554;28;20489;-76
2022/01/02 02:14:14;;;;;;;1.88;1.42;;;;;;;17.57;65.12;101150.22;21160118;28;20051;-76
2022/01/02 02:24:17;;;;;;;2.15;1.35;;;;;;;17.57;64.91;101117.91;21141363;28;20070;-76
2022/01/02 02:34:19;;;;;;;1.98;1.38;;;;;;;17.58;65.16;101121.44;21140370;28;20059;-76
2022/01/02 02:44:36;;;;;;;1.73;1.20;;;;;;;17.52;64.97;101086.00;21107484;28;20050;-76
2022/01/02 02:54:42;;;;;;;3.13;1.60;;;;;;;17.57;64.98;101071.28;21125194;28;20063;-77
2022/01/02 03:04:44;;;;;;;2.50;1.47;;;;;;;17.09;65.11;100965.84;21137931;28;20108;-76
2022/01/02 03:14:46;;;;;;;2.47;1.40;;;;;;;17.12;64.93;100954.81;21138343;28;20532;-76
2022/01/02 03:24:52;;;;;;;2.33;1.60;;;;;;;17.36;65.02;100988.69;21137798;28;20044;-77
2022/01/02 03:34:55;;;;;;;1.83;1.40;;;;;;;16.67;65.02;100838.38;21137580;28;20044;-76
2022/01/02 03:44:58;;;;;;;2.95;1.55;;;;;;;17.43;64.98;100952.19;21136724;28;20104;-76
2022/01/02 03:55:00;;;;;;;2.92;1.33;;;;;;;17.58;64.94;100949.16;21136655;28;20075;-76
2022/01/02 04:05:02;;;;;;;3.40;1.67;;;;;;;17.19;65.02;100898.66;21145322;28;20047;-76
2022/01/02 04:15:07;;;;;;;3.13;1.52;;;;;;;17.50;64.84;100918.38;21134817;28;20468;-76
2022/01/02 04:25:10;;;;;;;3.95;1.95;;;;;;;17.59;64.94;100934.72;21134275;28;20047;-76
2022/01/02 04:35:11;;;;;;;2.17;1.58;;;;;;;17.08;64.96;100837.69;21133183;28;20101;-76
2022/01/02 04:45:14;;;;;;;2.88;1.52;;;;;;;17.41;64.85;100881.50;21167350;28;20054;-76
2022/01/02 04:55:16;;;;;;;2.55;1.50;;;;;;;17.18;64.91;100817.09;21168011;28;20059;-76
2022/01/02 05:05:18;;;;;;;3.03;1.50;;;;;;;17.12;64.83;100803.34;21147269;28;20399;-76
2022/01/02 05:15:21;;;;;;;2.53;1.52;;;;;;;17.39;65.06;100843.94;21129722;28;20035;-78
2022/01/02 05:25:24;;;;;;;3.95;1.80;;;;;;;16.89;65.24;100753.22;21122774;28;20070;-77
2022/01/02 05:35:26;;;;;;;3.55;1.75;;;;;;;17.28;65.36;100813.63;21062960;28;20105;-78
2022/01/02 05:45:29;;;;;;;3.72;1.70;;;;;;;17.08;65.54;100749.81;21060227;28;20083;-78
2022/01/02 05:55:31;;;;;;;3.30;1.92;;;;;;;17.58;65.95;100801.09;21059566;28;20052;-75
2022/01/02 06:05:33;;;;;;;6.47;2.88;;;;;;;17.58;66.49;100777.75;21058481;28;20058;-74
2022/01/02 06:15:36;;;;;;;3.17;1.40;;;;;;;17.63;66.83;100775.50;21058099;28;20051;-78
2022/01/02 06:25:38;;;;;;;7.18;1.70;;;;;;;17.65;67.59;100727.75;21056789;28;20507;-73
2022/01/02 06:35:40;;;;;;;7.72;1.92;;;;;;;17.46;68.13;100677.41;21040345;28;20044;-74
2022/01/02 06:45:45;;;;;;;4.50;1.83;;;;;;;17.16;69.29;100613.78;21073605;28;20048;-74
2022/01/02 06:55:47;;;;;;;;;;;;;;;17.67;69.91;100680.00;21074398;28;20047;-77
2022/01/02 07:05:49;;;;;;;2.97;1.77;;;;;;;17.15;69.88;100587.88;21072463;28;20300;-75
2022/01/02 07:15:52;;;;;;;5.50;1.77;;;;;;;17.19;70.34;100583.91;21054299;28;20050;-77
2022/01/02 07:25:54;;;;;;;3.65;1.95;;;;;;;17.57;70.31;100616.38;21072232;28;20044;-76
2022/01/02 07:35:55;;;;;;;4.97;1.70;;;;;;;17.43;70.41;100588.03;21075941;28;20052;-75
2022/01/02 07:46:05;;;;;;;4.95;2.00;;;;;;;17.05;70.03;100502.66;21071287;28;20040;-76
2022/01/02 07:56:07;;;;;;;4.03;1.80;;;;;;;17.57;70.06;100586.75;21087341;28;20052;-76
2022/01/02 08:06:09;;;;;;;3.30;1.60;;;;;;;17.57;69.81;100565.22;21086444;28;20047;-76
2022/01/02 08:16:11;;;;;;;4.65;1.85;;;;;;;17.53;69.41;100568.22;21085542;28;20060;-74
2022/01/02 08:26:17;;;;;;;2.72;1.30;;;;;;;17.06;69.30;100481.97;21085079;28;20101;-74
2022/01/02 08:36:19;;;;;;;3.83;1.58;;;;;;;16.84;69.38;100469.59;21084276;28;20097;-76
2022/01/02 08:46:21;;;;;;;3.63;1.85;;;;;;;17.03;69.89;100498.38;21031286;28;20040;-77
2022/01/02 08:56:23;;;;;;;3.45;1.58;;;;;;;17.32;69.50;100535.22;21082119;28;20142;-76
2022/01/02 09:06:25;;;;;;;4.45;1.85;;;;;;;17.51;69.28;100540.59;21063384;28;20052;-76
2022/01/02 09:16:26;;;;;;;2.15;1.17;;;;;;;17.38;69.21;100503.19;21080802;28;20052;-76
2022/01/02 09:26:28;;;;;;;5.80;1.90;;;;;;;17.38;68.92;100513.97;21079708;28;20389;-75
2022/01/02 09:36:30;;;;;;;4.78;1.80;;;;;;;17.12;68.69;100462.56;21080084;28;20047;-75
2022/01/02 09:46:32;;;;;;;3.60;1.65;;;;;;;17.12;68.67;100442.91;21078409;28;20109;-74
2022/01/02 09:56:34;;;;;;;3.10;1.50;;;;;;;17.10;68.73;100440.34;21077643;28;20142;-74
2022/01/02 10:06:48;;;;;;;2.95;1.50;;;;;;;17.05;68.55;100413.03;21058702;28;20058;-74
2022/01/02 10:16:50;;;;;;;2.75;1.50;;;;;;;17.51;68.23;100478.69;21058891;28;20500;-74
2022/01/02 10:27:08;;;;;;;4.57;1.65;;;;;;;17.56;68.10;100478.25;21075215;28;20135;-73
2022/01/02 10:37:22;;;;;;;3.40;1.55;;;;;;;17.12;67.98;100384.56;21056996;28;20047;-74
2022/01/02 10:47:26;;;;;;;3.17;1.30;;;;;;;17.56;67.74;100469.31;21056381;28;20438;-74
2022/01/02 10:57:27;;;;;;;3.10;1.40;;;;;;;17.07;67.60;100386.84;21055083;28;20125;-74
2022/01/02 11:07:38;;;;;;;1.80;1.20;;;;;;;17.41;67.84;100415.97;21037825;28;20056;-74
2022/01/02 11:17:41;;;;;;;3.42;1.50;;;;;;;17.61;67.86;100437.44;21071976;28;20126;-72
2022/01/02 11:27:45;;;;;;;5.38;1.60;;;;;;;17.40;68.27;100393.56;21054493;28;20478;-73
2022/01/02 11:37:56;;;;;;;3.92;2.00;;;;;;;16.40;68.34;100266.63;21053755;28;20044;-74
2022/01/02 11:47:59;;;;;;;5.88;2.20;;;;;;;17.62;68.76;100406.84;21071261;28;20040;-72
2022/01/02 11:58:00;;;;;;;4.53;2.03;;;;;;;17.60;69.12;100414.19;21071090;28;20408;-73
2022/01/02 12:08:05;;;;;;;3.75;1.85;;;;;;;17.36;68.79;100372.50;21052200;28;20060;-73
2022/01/02 12:18:25;;;;;;;4.13;2.20;;;;;;;17.52;68.82;100407.72;21036631;28;20151;-74
2022/01/02 12:28:28;;;;;;;4.47;1.90;;;;;;;17.32;68.78;100388.06;21081854;28;20066;-73
2022/01/02 12:38:30;;;;;;;5.60;2.13;;;;;;;17.42;68.88;100403.34;21033096;28;20048;-73
2022/01/02 12:48:35;;;;;;;4.47;2.00;;;;;;;17.50;68.69;100423.16;21083782;28;20043;-73
2022/01/02 12:58:38;;;;;;;6.53;1.88;;;;;;;17.10;68.46;100381.19;21082356;28;20075;-73
2022/01/02 13:08:40;;;;;;;6.78;2.20;;;;;;;17.13;68.34;100370.13;21081567;28;20051;-73
2022/01/02 13:18:42;;;;;;;5.30;1.65;;;;;;;17.56;67.92;100437.88;21082182;28;20059;-71
2022/01/02 13:28:44;;;;;;;5.20;1.92;;;;;;;17.46;67.79;100443.28;21061887;28;20040;-71
2022/01/02 13:38:58;;;;;;;8.57;2.20;;;;;;;17.54;68.14;100493.72;21060862;28;20048;-71
2022/01/02 13:48:59;;;;;;;8.70;2.60;;;;;;;17.49;68.20;100479.84;21060463;28;20044;-71
2022/01/02 13:59:01;;;;;;;6.07;1.70;;;;;;;17.48;68.46;100491.59;21077749;28;20060;-73
2022/01/02 14:09:05;;;;;;;5.60;1.83;;;;;;;16.98;68.38;100428.88;21076690;28;20492;-73
2022/01/02 14:19:07;;;;;;;5.45;1.58;;;;;;;16.99;67.68;100443.19;21058169;28;20523;-71
2022/01/02 14:29:09;;;;;;;6.90;1.45;;;;;;;17.39;66.96;100520.19;21075160;28;20048;-71
2022/01/02 14:39:11;;;;;;;7.10;2.00;;;;;;;17.24;66.84;100528.72;21074420;28;20102;-72
2022/01/02 14:49:13;;;;;;;10.10;2.13;;;;;;;17.30;66.87;100542.59;21055493;28;20432;-72
2022/01/02 14:59:15;;;;;;;5.90;2.00;;;;;;;17.29;66.71;100559.72;21073324;28;20052;-72
2022/01/02 15:09:17;;;;;;;7.63;1.67;;;;;;;17.22;67.27;100562.94;21054232;28;20052;-73
2022/01/02 15:19:21;;;;;;;7.82;1.83;;;;;;;16.89;67.39;100494.22;21037876;28;20050;-73
2022/01/02 15:29:23;;;;;;;4.70;1.55;;;;;;;16.92;67.35;100513.63;21072401;28;20040;-74
2022/01/02 15:39:25;;;;;;;6.35;1.75;;;;;;;16.93;67.13;100499.19;21053728;28;20542;-73
2022/01/02 15:49:27;;;;;;;4.60;1.45;;;;;;;17.47;67.13;100581.41;21071064;28;20464;-74
2022/01/02 15:59:29;;;;;;;3.75;1.40;;;;;;;16.98;66.89;100506.03;21079169;28;20068;-73
2022/01/02 16:09:32;;;;;;;3.70;1.50;;;;;;;17.01;66.72;100501.19;21086420;28;20051;-73
2022/01/02 16:19:34;;;;;;;5.15;1.63;;;;;;;17.46;66.60;100590.47;21085632;28;20050;-74
2022/01/02 16:29:36;;;;;;;3.92;1.58;;;;;;;17.44;66.48;100582.50;21085053;28;20055;-74
2022/01/02 16:39:38;;;;;;;4.80;1.38;;;;;;;17.46;66.38;100588.59;21084134;28;20058;-73
2022/01/02 16:49:40;;;;;;;2.63;1.33;;;;;;;17.47;66.22;100592.16;21083109;28;20093;-74
2022/01/02 16:59:42;;;;;;;3.92;0.98;;;;;;;17.03;66.15;100509.16;21082799;28;20135;-73
2022/01/02 17:09:43;;;;;;;3.83;1.25;;;;;;;17.38;66.14;100562.38;21081013;28;20542;-74
2022/01/02 17:19:45;;;;;;;5.10;1.30;;;;;;;16.93;66.07;100483.06;21081154;28;20542;-74
2022/01/02 17:29:47;;;;;;;4.28;1.33;;;;;;;17.31;65.98;100536.22;21079992;28;20044;-73
2022/01/02 17:39:49;;;;;;;3.63;1.13;;;;;;;17.21;65.83;100512.00;21079249;28;20123;-73
2022/01/02 17:49:51;;;;;;;3.63;1.30;;;;;;;17.44;65.67;100550.22;21060402;28;20048;-74
2022/01/02 17:59:53;;;;;;;2.15;0.90;;;;;;;17.42;65.57;100524.44;21060066;28;20573;-73
2022/01/02 18:10:01;;;;;;;4.50;1.48;;;;;;;16.65;65.78;100388.81;21076735;28;20062;-73
2022/01/02 18:20:07;;;;;;;2.38;0.90;;;;;;;17.05;65.53;100426.47;21074984;28;20063;-74
2022/01/02 18:30:11;;;;;;;1.83;0.88;;;;;;;16.98;65.61;100402.00;21075285;28;20056;-73
2022/01/02 18:40:15;;;;;;;2.92;1.10;;;;;;;17.30;65.42;100440.34;21056765;28;20121;-73
2022/01/02 18:50:17;;;;;;;2.80;0.95;;;;;;;17.41;65.61;100461.72;21056035;28;20098;-74
2022/01/02 19:00:19;;;;;;;4.00;1.08;;;;;;;17.23;65.58;100414.03;21073849;28;20055;-72
2022/01/02 19:10:21;;;;;;;3.10;0.90;;;;;;;16.70;65.60;100307.75;21073403;28;20060;-73
2022/01/02 19:20:23;;;;;;;3.75;1.33;;;;;;;17.07;65.81;100349.19;21072819;28;20106;-74
2022/01/02 19:30:25;;;;;;;3.15;0.90;;;;;;;17.22;65.94;100361.19;21074996;28;20496;-75
2022/01/02 19:40:27;;;;;;;4.07;1.58;;;;;;;16.91;65.98;100315.66;21089075;28;20051;-77
2022/01/02 19:50:29;;;;;;;3.90;1.02;;;;;;;17.01;66.05;100314.81;21070149;28;21019;-73
2022/01/02 20:00:31;;;;;;;5.03;1.30;;;;;;;16.57;66.33;100223.88;21087737;28;20109;-73
2022/01/02 20:10:33;;;;;;;3.03;0.93;;;;;;;16.45;66.29;100193.66;21068654;28;20512;-72
2022/01/02 20:20:37;;;;;;;2.22;1.08;;;;;;;16.31;66.33;100160.88;21068669;28;20044;-73
2022/01/02 20:30:40;;;;;;;3.45;1.00;;;;;;;16.88;66.24;100272.94;21050813;28;20503;-73
2022/01/02 20:40:42;;;;;;;3.25;1.20;;;;;;;16.24;66.20;100149.88;21050395;28;20055;-73
2022/01/02 20:50:48;;;;;;;3.58;1.05;;;;;;;16.77;66.28;100257.81;21083136;28;20044;-72
2022/01/02 21:00:50;;;;;;;4.13;1.20;;;;;;;16.71;66.61;100219.91;21082725;28;20044;-71
2022/01/02 21:10:53;;;;;;;2.75;0.90;;;;;;;16.16;66.14;100146.19;21047417;28;20581;-71
2022/01/02 21:20:55;;;;;;;2.67;1.15;;;;;;;16.16;66.25;100151.56;21080973;28;20051;-73
2022/01/02 21:30:57;;;;;;;2.58;1.00;;;;;;;16.54;66.36;100200.84;21080015;28;20048;-71
2022/01/02 21:40:58;;;;;;;3.47;1.20;;;;;;;16.05;66.52;100113.16;21061361;28;20052;-71
2022/01/02 21:51:00;;;;;;;4.32;1.27;;;;;;;16.01;66.68;100105.50;21078681;28;20554;-72
2022/01/02 22:01:02;;;;;;;1.77;0.70;;;;;;;15.95;66.27;100080.94;21077498;28;20056;-71
2022/01/02 22:11:06;;;;;;;1.85;0.80;;;;;;;15.79;66.36;100060.00;21076919;28;20089;-72
2022/01/02 22:21:07;;;;;;;2.50;1.02;;;;;;;16.29;66.35;100173.59;21076293;28;20454;-71
2022/01/02 22:31:10;;;;;;;2.60;0.70;;;;;;;16.24;66.23;100214.31;21075501;28;20101;-71
2022/01/02 22:41:12;;;;;;;2.17;0.82;;;;;;;15.67;66.39;100138.97;21074766;28;20040;-72
2022/01/02 22:51:14;;;;;;;2.90;1.02;;;;;;;16.13;66.45;100261.94;21073832;28;20101;-71
2022/01/02 23:01:17;;;;;;;0.90;0.40;;;;;;;16.11;66.47;100288.94;21056642;28;20051;-72
2022/01/02 23:11:22;;;;;;;1.48;0.50;;;;;;;15.42;66.41;100202.88;21072027;28;20076;-72
2022/01/02 23:21:26;;;;;;;2.10;0.63;;;;;;;15.14;66.44;100181.22;21054628;28;20056;-71
2022/01/02 23:31:27;;;;;;;0.90;0.43;;;;;;;15.48;66.19;100269.44;21072135;28;20048;-71
2022/01/02 23:41:29;;;;;;;1.13;0.50;;;;;;;15.77;66.50;100342.97;21071551;28;20517;-71
2022/01/02 23:51:35;;;;;;;1.65;0.60;;;;;;;15.43;66.39;100295.78;21053298;28;20139;-71
